Accomac, Virginia
Current Conditions -  °F | °C
As of 10:55 PM on Saturday 25 Oct 2014 (Local Time) from KMFV Reporting Station
Clear Clear  
Wind Chill: 16°   Ceiling: Unl
Heat Index: 16°   Visibility: 10mi
Dew Point:   Wind: 12mph
Humidity: 55%   Direction: 230°SW
Pressure: 29.75"   Gusts: 16mph
Location:  37.72°N, 75.67°W
Report Text: KMFV 260255Z AUTO 23010G14KT 10SM CLR 16/07 A2975 RMK AO2
Loading
Personal Weather Stations






























Interactive Weather Map
Tropical Storm Tracking
New forecast layout! Learn more

10-Day Weather Forecast

Advertisements
Track Severe Weather on mobile